sensor_id;sensor_type;location;lat;lon;timestamp;temperature;humidity
42715;DHT22;28351;51.480;5.706;2022-08-11T00:02:28;19.70;99.90
42715;DHT22;28351;51.480;5.706;2022-08-11T00:04:56;19.70;99.90
42715;DHT22;28351;51.480;5.706;2022-08-11T00:07:26;19.60;99.90
42715;DHT22;28351;51.480;5.706;2022-08-11T00:09:53;19.60;99.90
42715;DHT22;28351;51.480;5.706;2022-08-11T00:12:19;19.60;99.90
42715;DHT22;28351;51.480;5.706;2022-08-11T00:14:46;19.50;99.90
42715;DHT22;28351;51.480;5.706;2022-08-11T00:17:26;19.50;99.90
42715;DHT22;28351;51.480;5.706;2022-08-11T00:19:53;19.50;99.90
42715;DHT22;28351;51.480;5.706;2022-08-11T00:22:26;19.50;99.90
42715;DHT22;28351;51.480;5.706;2022-08-11T00:24:54;19.40;99.90
42715;DHT22;28351;51.480;5.706;2022-08-11T00:27:31;19.30;99.90
42715;DHT22;28351;51.480;5.706;2022-08-11T00:29:58;19.30;99.90
42715;DHT22;28351;51.480;5.706;2022-08-11T00:32:24;19.30;99.90
42715;DHT22;28351;51.480;5.706;2022-08-11T00:34:51;19.30;99.90
42715;DHT22;28351;51.480;5.706;2022-08-11T00:37:20;19.20;99.90
42715;DHT22;28351;51.480;5.706;2022-08-11T00:39:49;19.30;99.90
42715;DHT22;28351;51.480;5.706;2022-08-11T00:45:26;19.10;99.90
42715;DHT22;28351;51.480;5.706;2022-08-11T00:50:59;19.10;99.90
42715;DHT22;28351;51.480;5.706;2022-08-11T01:27:23;18.40;99.90
42715;DHT22;28351;51.480;5.706;2022-08-11T01:32:47;18.30;99.90
42715;DHT22;28351;51.480;5.706;2022-08-11T01:44:57;18.20;99.90
42715;DHT22;28351;51.480;5.706;2022-08-11T01:47:42;18.10;99.90
42715;DHT22;28351;51.480;5.706;2022-08-11T01:50:43;18.10;99.90
42715;DHT22;28351;51.480;5.706;2022-08-11T01:53:50;18.00;99.90
42715;DHT22;28351;51.480;5.706;2022-08-11T01:59:34;17.90;99.90
42715;DHT22;28351;51.480;5.706;2022-08-11T02:07:12;17.90;99.90
42715;DHT22;28351;51.480;5.706;2022-08-11T02:10:17;17.80;99.90
42715;DHT22;28351;51.480;5.706;2022-08-11T02:13:30;17.70;99.90
42715;DHT22;28351;51.480;5.706;2022-08-11T02:22:22;17.60;99.90
42715;DHT22;28351;51.480;5.706;2022-08-11T02:25:17;17.50;99.90
42715;DHT22;28351;51.480;5.706;2022-08-11T02:27:52;17.50;99.90
42715;DHT22;28351;51.480;5.706;2022-08-11T02:30:24;17.40;99.90
42715;DHT22;28351;51.480;5.706;2022-08-11T02:32:57;17.40;99.90
42715;DHT22;28351;51.480;5.706;2022-08-11T02:36:05;17.40;99.90
42715;DHT22;28351;51.480;5.706;2022-08-11T02:39:07;17.40;99.90
42715;DHT22;28351;51.480;5.706;2022-08-11T02:42:03;17.40;99.90
42715;DHT22;28351;51.480;5.706;2022-08-11T02:48:03;17.40;99.90
42715;DHT22;28351;51.480;5.706;2022-08-11T02:51:02;17.40;99.90
42715;DHT22;28351;51.480;5.706;2022-08-11T02:53:43;17.40;99.90
42715;DHT22;28351;51.480;5.706;2022-08-11T02:56:29;17.30;99.90
42715;DHT22;28351;51.480;5.706;2022-08-11T03:13:20;17.20;99.90
42715;DHT22;28351;51.480;5.706;2022-08-11T03:25:02;17.10;99.90
42715;DHT22;28351;51.480;5.706;2022-08-11T03:33:18;17.00;99.90
42715;DHT22;28351;51.480;5.706;2022-08-11T03:44:49;16.80;99.90
42715;DHT22;28351;51.480;5.706;2022-08-11T03:47:36;16.80;99.90
42715;DHT22;28351;51.480;5.706;2022-08-11T03:50:28;16.80;99.90
42715;DHT22;28351;51.480;5.706;2022-08-11T03:53:18;16.70;99.90
42715;DHT22;28351;51.480;5.706;2022-08-11T03:56:22;16.70;99.90
42715;DHT22;28351;51.480;5.706;2022-08-11T03:59:15;16.70;99.90
42715;DHT22;28351;51.480;5.706;2022-08-11T04:01:57;16.60;99.90
42715;DHT22;28351;51.480;5.706;2022-08-11T04:17:29;16.50;99.90
42715;DHT22;28351;51.480;5.706;2022-08-11T04:20:22;16.50;99.90
42715;DHT22;28351;51.480;5.706;2022-08-11T04:23:23;16.50;99.90
42715;DHT22;28351;51.480;5.706;2022-08-11T04:29:05;16.40;99.90
42715;DHT22;28351;51.480;5.706;2022-08-11T04:31:57;16.40;99.90
42715;DHT22;28351;51.480;5.706;2022-08-11T04:37:19;16.40;99.90
42715;DHT22;28351;51.480;5.706;2022-08-11T04:40:27;16.40;99.90
42715;DHT22;28351;51.480;5.706;2022-08-11T04:49:45;16.50;99.90
42715;DHT22;28351;51.480;5.706;2022-08-11T04:56:01;16.50;99.90
42715;DHT22;28351;51.480;5.706;2022-08-11T05:16:57;16.60;99.90
42715;DHT22;28351;51.480;5.706;2022-08-11T05:19:46;16.60;99.90
42715;DHT22;28351;51.480;5.706;2022-08-11T05:22:30;16.70;99.90
42715;DHT22;28351;51.480;5.706;2022-08-11T05:25:29;16.70;99.90
42715;DHT22;28351;51.480;5.706;2022-08-11T05:28:37;16.80;99.90
42715;DHT22;28351;51.480;5.706;2022-08-11T05:31:38;16.90;99.90
42715;DHT22;28351;51.480;5.706;2022-08-11T05:34:29;17.00;99.90
42715;DHT22;28351;51.480;5.706;2022-08-11T05:37:37;17.10;99.90
42715;DHT22;28351;51.480;5.706;2022-08-11T05:40:06;17.20;99.90
42715;DHT22;28351;51.480;5.706;2022-08-11T05:43:06;17.40;99.90
42715;DHT22;28351;51.480;5.706;2022-08-11T05:46:05;17.50;99.90
42715;DHT22;28351;51.480;5.706;2022-08-11T05:48:52;17.60;99.90
42715;DHT22;28351;51.480;5.706;2022-08-11T05:51:42;17.70;99.90
42715;DHT22;28351;51.480;5.706;2022-08-11T05:54:30;17.80;99.90
42715;DHT22;28351;51.480;5.706;2022-08-11T05:57:20;17.90;99.90
42715;DHT22;28351;51.480;5.706;2022-08-11T05:59:47;18.00;99.90
42715;DHT22;28351;51.480;5.706;2022-08-11T06:02:13;18.10;99.90
42715;DHT22;28351;51.480;5.706;2022-08-11T06:04:39;18.20;99.90
42715;DHT22;28351;51.480;5.706;2022-08-11T06:07:10;18.30;99.90
42715;DHT22;28351;51.480;5.706;2022-08-11T06:09:48;18.40;99.90
42715;DHT22;28351;51.480;5.706;2022-08-11T06:12:22;18.40;99.90
42715;DHT22;28351;51.480;5.706;2022-08-11T06:14:53;18.50;99.90
42715;DHT22;28351;51.480;5.706;2022-08-11T06:17:25;18.70;99.90
42715;DHT22;28351;51.480;5.706;2022-08-11T06:19:51;18.80;99.90
42715;DHT22;28351;51.480;5.706;2022-08-11T06:22:24;18.90;99.90
42715;DHT22;28351;51.480;5.706;2022-08-11T06:24:56;19.00;99.90
42715;DHT22;28351;51.480;5.706;2022-08-11T06:27:23;19.10;99.90
42715;DHT22;28351;51.480;5.706;2022-08-11T06:29:53;19.20;99.90
42715;DHT22;28351;51.480;5.706;2022-08-11T06:32:20;19.30;99.90
42715;DHT22;28351;51.480;5.706;2022-08-11T06:35:00;19.40;99.90
42715;DHT22;28351;51.480;5.706;2022-08-11T06:40:49;19.70;99.90
42715;DHT22;28351;51.480;5.706;2022-08-11T06:46:36;19.90;99.90
42715;DHT22;28351;51.480;5.706;2022-08-11T06:49:07;20.00;99.90
42715;DHT22;28351;51.480;5.706;2022-08-11T06:51:59;20.20;99.90
42715;DHT22;28351;51.480;5.706;2022-08-11T06:54:35;20.30;99.90
42715;DHT22;28351;51.480;5.706;2022-08-11T06:57:06;20.40;99.90
42715;DHT22;28351;51.480;5.706;2022-08-11T06:59:52;20.50;99.90
42715;DHT22;28351;51.480;5.706;2022-08-11T07:02:44;20.60;99.90
42715;DHT22;28351;51.480;5.706;2022-08-11T07:14:10;21.10;99.90
42715;DHT22;28351;51.480;5.706;2022-08-11T07:16:55;21.20;99.90
42715;DHT22;28351;51.480;5.706;2022-08-11T07:19:28;21.20;99.90
42715;DHT22;28351;51.480;5.706;2022-08-11T07:22:13;21.30;99.90
42715;DHT22;28351;51.480;5.706;2022-08-11T07:25:12;21.40;99.90
42715;DHT22;28351;51.480;5.706;2022-08-11T07:28:03;21.50;99.90
42715;DHT22;28351;51.480;5.706;2022-08-11T07:30:48;21.60;99.90
42715;DHT22;28351;51.480;5.706;2022-08-11T07:33:25;21.70;99.90
42715;DHT22;28351;51.480;5.706;2022-08-11T07:35:55;21.80;99.90
42715;DHT22;28351;51.480;5.706;2022-08-11T07:38:24;21.90;99.90
42715;DHT22;28351;51.480;5.706;2022-08-11T07:41:11;22.00;99.90
42715;DHT22;28351;51.480;5.706;2022-08-11T07:43:39;22.00;99.90
42715;DHT22;28351;51.480;5.706;2022-08-11T07:46:06;22.10;99.90
42715;DHT22;28351;51.480;5.706;2022-08-11T07:48:51;22.10;99.90
42715;DHT22;28351;51.480;5.706;2022-08-11T07:51:35;22.30;99.90
42715;DHT22;28351;51.480;5.706;2022-08-11T07:54:20;22.40;99.90
42715;DHT22;28351;51.480;5.706;2022-08-11T07:56:46;22.40;99.90
42715;DHT22;28351;51.480;5.706;2022-08-11T07:59:13;22.50;99.90
42715;DHT22;28351;51.480;5.706;2022-08-11T08:01:58;22.60;99.90
42715;DHT22;28351;51.480;5.706;2022-08-11T08:04:45;22.80;99.90
42715;DHT22;28351;51.480;5.706;2022-08-11T08:07:29;22.90;99.90
42715;DHT22;28351;51.480;5.706;2022-08-11T08:10:16;23.10;99.90
42715;DHT22;28351;51.480;5.706;2022-08-11T08:13:02;23.20;99.90
42715;DHT22;28351;51.480;5.706;2022-08-11T08:15:47;23.30;99.90
42715;DHT22;28351;51.480;5.706;2022-08-11T08:18:35;23.50;99.90
42715;DHT22;28351;51.480;5.706;2022-08-11T08:21:03;23.60;99.90
42715;DHT22;28351;51.480;5.706;2022-08-11T08:23:42;23.70;99.90
42715;DHT22;28351;51.480;5.706;2022-08-11T08:26:11;23.80;99.90
42715;DHT22;28351;51.480;5.706;2022-08-11T08:29:00;24.00;99.90
42715;DHT22;28351;51.480;5.706;2022-08-11T08:31:45;24.10;99.90
42715;DHT22;28351;51.480;5.706;2022-08-11T08:34:13;24.20;99.90
42715;DHT22;28351;51.480;5.706;2022-08-11T08:36:46;24.30;99.90
42715;DHT22;28351;51.480;5.706;2022-08-11T08:39:12;24.30;99.90
42715;DHT22;28351;51.480;5.706;2022-08-11T08:41:39;24.40;99.90
42715;DHT22;28351;51.480;5.706;2022-08-11T08:44:09;24.50;99.90
42715;DHT22;28351;51.480;5.706;2022-08-11T08:46:47;24.60;99.90
42715;DHT22;28351;51.480;5.706;2022-08-11T08:49:18;24.70;99.90
42715;DHT22;28351;51.480;5.706;2022-08-11T08:51:51;24.80;99.90
42715;DHT22;28351;51.480;5.706;2022-08-11T08:54:21;24.90;99.60
42715;DHT22;28351;51.480;5.706;2022-08-11T08:56:51;25.00;99.80
42715;DHT22;28351;51.480;5.706;2022-08-11T08:59:21;25.10;99.90
42715;DHT22;28351;51.480;5.706;2022-08-11T09:01:57;25.10;99.90
42715;DHT22;28351;51.480;5.706;2022-08-11T09:04:24;25.20;99.90
42715;DHT22;28351;51.480;5.706;2022-08-11T09:06:52;25.30;98.70
42715;DHT22;28351;51.480;5.706;2022-08-11T09:09:19;25.40;99.20
42715;DHT22;28351;51.480;5.706;2022-08-11T09:11:47;25.50;99.30
42715;DHT22;28351;51.480;5.706;2022-08-11T09:14:22;25.70;99.20
42715;DHT22;28351;51.480;5.706;2022-08-11T09:16:49;25.80;99.00
42715;DHT22;28351;51.480;5.706;2022-08-11T09:19:17;25.90;99.00
42715;DHT22;28351;51.480;5.706;2022-08-11T09:21:48;26.00;98.90
42715;DHT22;28351;51.480;5.706;2022-08-11T09:24:37;26.20;98.90
42715;DHT22;28351;51.480;5.706;2022-08-11T09:27:22;26.40;98.40
42715;DHT22;28351;51.480;5.706;2022-08-11T09:29:49;26.60;98.40
42715;DHT22;28351;51.480;5.706;2022-08-11T09:32:19;26.70;98.40
42715;DHT22;28351;51.480;5.706;2022-08-11T09:34:45;26.80;97.90
42715;DHT22;28351;51.480;5.706;2022-08-11T09:37:12;26.80;97.60
42715;DHT22;28351;51.480;5.706;2022-08-11T09:39:57;27.00;97.70
42715;DHT22;28351;51.480;5.706;2022-08-11T09:42:42;27.30;97.30
42715;DHT22;28351;51.480;5.706;2022-08-11T09:45:27;27.40;97.10
42715;DHT22;28351;51.480;5.706;2022-08-11T09:47:53;27.60;96.70
42715;DHT22;28351;51.480;5.706;2022-08-11T09:50:19;27.80;97.00
42715;DHT22;28351;51.480;5.706;2022-08-11T09:52:46;27.90;96.00
42715;DHT22;28351;51.480;5.706;2022-08-11T09:55:13;28.00;96.30
42715;DHT22;28351;51.480;5.706;2022-08-11T09:57:43;28.10;95.70
42715;DHT22;28351;51.480;5.706;2022-08-11T10:00:30;28.20;95.00
42715;DHT22;28351;51.480;5.706;2022-08-11T10:02:56;28.40;95.00
42715;DHT22;28351;51.480;5.706;2022-08-11T10:05:22;28.60;94.50
42715;DHT22;28351;51.480;5.706;2022-08-11T10:08:11;28.80;94.40
42715;DHT22;28351;51.480;5.706;2022-08-11T10:10:37;28.80;93.60
42715;DHT22;28351;51.480;5.706;2022-08-11T10:13:10;28.80;93.70
42715;DHT22;28351;51.480;5.706;2022-08-11T10:15:38;28.90;94.10
42715;DHT22;28351;51.480;5.706;2022-08-11T10:18:07;29.10;93.30
42715;DHT22;28351;51.480;5.706;2022-08-11T10:20:52;29.30;93.60
42715;DHT22;28351;51.480;5.706;2022-08-11T10:23:19;29.50;92.80
42715;DHT22;28351;51.480;5.706;2022-08-11T10:26:04;29.60;92.40
42715;DHT22;28351;51.480;5.706;2022-08-11T10:28:49;29.70;91.60
42715;DHT22;28351;51.480;5.706;2022-08-11T10:31:15;29.70;92.10
42715;DHT22;28351;51.480;5.706;2022-08-11T10:34:00;30.00;91.70
42715;DHT22;28351;51.480;5.706;2022-08-11T10:36:28;30.30;91.50
42715;DHT22;28351;51.480;5.706;2022-08-11T10:38:54;30.50;91.00
42715;DHT22;28351;51.480;5.706;2022-08-11T10:41:20;30.70;90.90
42715;DHT22;28351;51.480;5.706;2022-08-11T10:44:07;30.80;90.60
42715;DHT22;28351;51.480;5.706;2022-08-11T10:46:34;30.90;90.50
42715;DHT22;28351;51.480;5.706;2022-08-11T10:49:18;31.30;90.00
42715;DHT22;28351;51.480;5.706;2022-08-11T10:51:44;31.40;90.20
42715;DHT22;28351;51.480;5.706;2022-08-11T10:54:28;31.70;88.70
42715;DHT22;28351;51.480;5.706;2022-08-11T10:57:13;31.80;87.30
42715;DHT22;28351;51.480;5.706;2022-08-11T10:59:58;32.10;87.70
42715;DHT22;28351;51.480;5.706;2022-08-11T11:02:24;32.30;85.30
42715;DHT22;28351;51.480;5.706;2022-08-11T11:04:58;32.40;84.50
42715;DHT22;28351;51.480;5.706;2022-08-11T11:07:33;32.60;83.50
42715;DHT22;28351;51.480;5.706;2022-08-11T11:10:04;32.70;82.70
42715;DHT22;28351;51.480;5.706;2022-08-11T11:15:21;33.60;81.40
42715;DHT22;28351;51.480;5.706;2022-08-11T11:18:20;34.30;80.70
42715;DHT22;28351;51.480;5.706;2022-08-11T11:23:17;35.20;80.00
42715;DHT22;28351;51.480;5.706;2022-08-11T11:28:37;36.40;77.00
42715;DHT22;28351;51.480;5.706;2022-08-11T11:38:52;38.60;73.30
42715;DHT22;28351;51.480;5.706;2022-08-11T11:41:21;38.90;72.40
42715;DHT22;28351;51.480;5.706;2022-08-11T11:43:50;39.30;71.40
42715;DHT22;28351;51.480;5.706;2022-08-11T11:46:16;39.80;70.90
42715;DHT22;28351;51.480;5.706;2022-08-11T11:48:45;40.40;68.20
42715;DHT22;28351;51.480;5.706;2022-08-11T11:51:11;40.20;68.20
42715;DHT22;28351;51.480;5.706;2022-08-11T11:53:42;39.60;67.80
42715;DHT22;28351;51.480;5.706;2022-08-11T11:56:10;40.10;67.70
42715;DHT22;28351;51.480;5.706;2022-08-11T11:58:36;40.60;66.60
42715;DHT22;28351;51.480;5.706;2022-08-11T12:01:20;40.60;67.60
42715;DHT22;28351;51.480;5.706;2022-08-11T12:03:50;40.70;65.80
42715;DHT22;28351;51.480;5.706;2022-08-11T12:06:17;40.60;65.50
42715;DHT22;28351;51.480;5.706;2022-08-11T12:08:43;41.00;65.30
42715;DHT22;28351;51.480;5.706;2022-08-11T12:11:10;41.10;65.20
42715;DHT22;28351;51.480;5.706;2022-08-11T12:13:54;39.70;64.30
42715;DHT22;28351;51.480;5.706;2022-08-11T12:16:21;40.30;65.10
42715;DHT22;28351;51.480;5.706;2022-08-11T12:18:48;41.00;65.70
42715;DHT22;28351;51.480;5.706;2022-08-11T12:21:15;40.90;63.50
42715;DHT22;28351;51.480;5.706;2022-08-11T12:23:41;40.40;63.50
42715;DHT22;28351;51.480;5.706;2022-08-11T12:26:26;41.00;64.70
42715;DHT22;28351;51.480;5.706;2022-08-11T12:29:11;41.70;63.60
42715;DHT22;28351;51.480;5.706;2022-08-11T12:31:37;41.10;63.80
42715;DHT22;28351;51.480;5.706;2022-08-11T12:34:04;41.50;63.40
42715;DHT22;28351;51.480;5.706;2022-08-11T12:36:37;41.00;63.00
42715;DHT22;28351;51.480;5.706;2022-08-11T12:39:08;41.50;63.00
42715;DHT22;28351;51.480;5.706;2022-08-11T12:41:33;41.30;61.70
42715;DHT22;28351;51.480;5.706;2022-08-11T12:44:18;41.80;62.50
42715;DHT22;28351;51.480;5.706;2022-08-11T12:47:03;42.80;62.40
42715;DHT22;28351;51.480;5.706;2022-08-11T12:49:29;42.90;61.20
42715;DHT22;28351;51.480;5.706;2022-08-11T12:52:20;42.60;60.50
42715;DHT22;28351;51.480;5.706;2022-08-11T12:57:32;43.10;60.80
42715;DHT22;28351;51.480;5.706;2022-08-11T13:00:16;42.80;61.80
42715;DHT22;28351;51.480;5.706;2022-08-11T13:03:01;43.80;60.60
42715;DHT22;28351;51.480;5.706;2022-08-11T13:05:46;43.20;59.70
42715;DHT22;28351;51.480;5.706;2022-08-11T13:08:13;43.40;59.80
42715;DHT22;28351;51.480;5.706;2022-08-11T13:10:39;43.20;58.70
42715;DHT22;28351;51.480;5.706;2022-08-11T13:13:23;42.90;59.30
42715;DHT22;28351;51.480;5.706;2022-08-11T13:15:49;43.00;58.80
42715;DHT22;28351;51.480;5.706;2022-08-11T13:18:18;43.70;58.90
42715;DHT22;28351;51.480;5.706;2022-08-11T13:20:56;43.20;58.10
42715;DHT22;28351;51.480;5.706;2022-08-11T13:23:22;43.70;58.30
42715;DHT22;28351;51.480;5.706;2022-08-11T13:25:48;43.80;58.80
42715;DHT22;28351;51.480;5.706;2022-08-11T13:28:15;44.00;59.20
42715;DHT22;28351;51.480;5.706;2022-08-11T13:30:42;43.90;57.80
42715;DHT22;28351;51.480;5.706;2022-08-11T13:33:27;42.90;58.10
42715;DHT22;28351;51.480;5.706;2022-08-11T13:35:53;42.80;57.70
42715;DHT22;28351;51.480;5.706;2022-08-11T13:38:20;42.80;57.90
42715;DHT22;28351;51.480;5.706;2022-08-11T13:40:47;42.60;57.70
42715;DHT22;28351;51.480;5.706;2022-08-11T13:43:13;41.50;56.60
42715;DHT22;28351;51.480;5.706;2022-08-11T13:45:39;41.50;56.70
42715;DHT22;28351;51.480;5.706;2022-08-11T13:48:06;42.40;56.70
42715;DHT22;28351;51.480;5.706;2022-08-11T13:50:32;43.40;58.10
42715;DHT22;28351;51.480;5.706;2022-08-11T13:53:18;43.60;56.80
42715;DHT22;28351;51.480;5.706;2022-08-11T13:55:45;42.30;57.00
42715;DHT22;28351;51.480;5.706;2022-08-11T13:58:11;42.20;55.90
42715;DHT22;28351;51.480;5.706;2022-08-11T14:00:37;42.20;56.70
42715;DHT22;28351;51.480;5.706;2022-08-11T14:03:05;42.40;56.70
42715;DHT22;28351;51.480;5.706;2022-08-11T14:05:36;42.60;57.60
42715;DHT22;28351;51.480;5.706;2022-08-11T14:08:03;43.10;56.60
42715;DHT22;28351;51.480;5.706;2022-08-11T14:10:32;43.40;56.00
42715;DHT22;28351;51.480;5.706;2022-08-11T14:12:59;43.10;56.90
42715;DHT22;28351;51.480;5.706;2022-08-11T14:15:44;43.20;57.70
42715;DHT22;28351;51.480;5.706;2022-08-11T14:18:21;43.70;56.10
42715;DHT22;28351;51.480;5.706;2022-08-11T14:20:48;43.00;56.10
42715;DHT22;28351;51.480;5.706;2022-08-11T14:23:34;43.30;56.30
42715;DHT22;28351;51.480;5.706;2022-08-11T14:26:01;43.50;56.40
42715;DHT22;28351;51.480;5.706;2022-08-11T14:28:46;43.40;56.70
42715;DHT22;28351;51.480;5.706;2022-08-11T14:31:13;43.90;56.00
42715;DHT22;28351;51.480;5.706;2022-08-11T14:33:39;44.00;56.40
42715;DHT22;28351;51.480;5.706;2022-08-11T14:36:05;43.40;56.20
42715;DHT22;28351;51.480;5.706;2022-08-11T14:38:33;43.00;56.10
42715;DHT22;28351;51.480;5.706;2022-08-11T14:41:00;43.00;57.60
42715;DHT22;28351;51.480;5.706;2022-08-11T14:43:44;43.40;56.00
42715;DHT22;28351;51.480;5.706;2022-08-11T14:46:29;43.50;56.50
42715;DHT22;28351;51.480;5.706;2022-08-11T14:49:14;44.20;56.00
42715;DHT22;28351;51.480;5.706;2022-08-11T14:51:40;43.70;55.20
42715;DHT22;28351;51.480;5.706;2022-08-11T14:54:06;43.50;54.80
42715;DHT22;28351;51.480;5.706;2022-08-11T14:56:51;43.70;55.50
42715;DHT22;28351;51.480;5.706;2022-08-11T14:59:17;43.60;55.30
42715;DHT22;28351;51.480;5.706;2022-08-11T15:01:46;42.90;54.80
42715;DHT22;28351;51.480;5.706;2022-08-11T15:04:30;43.30;55.30
42715;DHT22;28351;51.480;5.706;2022-08-11T15:06:56;43.40;56.00
42715;DHT22;28351;51.480;5.706;2022-08-11T15:09:21;43.50;55.60
42715;DHT22;28351;51.480;5.706;2022-08-11T15:11:47;43.10;54.90
42715;DHT22;28351;51.480;5.706;2022-08-11T15:14:31;43.40;55.50
42715;DHT22;28351;51.480;5.706;2022-08-11T15:17:15;43.30;54.50
42715;DHT22;28351;51.480;5.706;2022-08-11T15:19:42;42.90;54.50
42715;DHT22;28351;51.480;5.706;2022-08-11T15:22:28;42.00;54.90
42715;DHT22;28351;51.480;5.706;2022-08-11T15:25:12;42.70;54.80
42715;DHT22;28351;51.480;5.706;2022-08-11T15:27:38;42.70;56.00
42715;DHT22;28351;51.480;5.706;2022-08-11T15:30:23;42.40;54.50
42715;DHT22;28351;51.480;5.706;2022-08-11T15:33:10;41.90;54.50
42715;DHT22;28351;51.480;5.706;2022-08-11T15:35:54;42.10;54.60
42715;DHT22;28351;51.480;5.706;2022-08-11T15:38:45;41.90;54.00
42715;DHT22;28351;51.480;5.706;2022-08-11T15:41:12;41.90;54.30
42715;DHT22;28351;51.480;5.706;2022-08-11T15:43:58;42.00;54.50
42715;DHT22;28351;51.480;5.706;2022-08-11T15:46:44;42.50;54.00
42715;DHT22;28351;51.480;5.706;2022-08-11T15:49:13;42.90;54.40
42715;DHT22;28351;51.480;5.706;2022-08-11T15:51:55;41.80;53.60
42715;DHT22;28351;51.480;5.706;2022-08-11T15:54:22;41.70;54.20
42715;DHT22;28351;51.480;5.706;2022-08-11T15:56:49;40.90;54.40
42715;DHT22;28351;51.480;5.706;2022-08-11T15:59:16;40.90;53.90
42715;DHT22;28351;51.480;5.706;2022-08-11T16:02:13;40.90;54.10
42715;DHT22;28351;51.480;5.706;2022-08-11T16:04:58;40.70;53.40
42715;DHT22;28351;51.480;5.706;2022-08-11T16:07:26;41.20;53.40
42715;DHT22;28351;51.480;5.706;2022-08-11T16:10:04;41.20;53.80
42715;DHT22;28351;51.480;5.706;2022-08-11T16:12:44;41.10;54.60
42715;DHT22;28351;51.480;5.706;2022-08-11T16:15:30;40.90;54.40
42715;DHT22;28351;51.480;5.706;2022-08-11T16:18:15;40.60;54.20
42715;DHT22;28351;51.480;5.706;2022-08-11T16:20:43;40.40;54.10
42715;DHT22;28351;51.480;5.706;2022-08-11T16:23:09;40.60;53.60
42715;DHT22;28351;51.480;5.706;2022-08-11T16:25:35;40.60;54.20
42715;DHT22;28351;51.480;5.706;2022-08-11T16:28:01;39.50;53.90
42715;DHT22;28351;51.480;5.706;2022-08-11T16:30:31;38.40;54.10
42715;DHT22;28351;51.480;5.706;2022-08-11T16:32:58;37.40;54.50
42715;DHT22;28351;51.480;5.706;2022-08-11T16:35:24;36.80;55.40
42715;DHT22;28351;51.480;5.706;2022-08-11T16:38:10;36.10;55.40
42715;DHT22;28351;51.480;5.706;2022-08-11T16:40:56;35.30;56.40
42715;DHT22;28351;51.480;5.706;2022-08-11T16:43:23;34.70;57.50
42715;DHT22;28351;51.480;5.706;2022-08-11T16:46:11;34.30;58.20
42715;DHT22;28351;51.480;5.706;2022-08-11T16:48:56;33.80;57.90
42715;DHT22;28351;51.480;5.706;2022-08-11T16:51:23;33.50;57.90
42715;DHT22;28351;51.480;5.706;2022-08-11T16:53:48;33.30;58.70
42715;DHT22;28351;51.480;5.706;2022-08-11T16:56:19;33.00;58.90
42715;DHT22;28351;51.480;5.706;2022-08-11T16:58:49;32.80;59.10
42715;DHT22;28351;51.480;5.706;2022-08-11T17:01:35;32.70;59.50
42715;DHT22;28351;51.480;5.706;2022-08-11T17:04:06;32.60;59.40
42715;DHT22;28351;51.480;5.706;2022-08-11T17:06:51;32.50;58.70
42715;DHT22;28351;51.480;5.706;2022-08-11T17:09:35;32.50;59.30
42715;DHT22;28351;51.480;5.706;2022-08-11T17:12:21;32.50;59.60
42715;DHT22;28351;51.480;5.706;2022-08-11T17:15:08;32.30;59.50
42715;DHT22;28351;51.480;5.706;2022-08-11T17:17:54;32.20;60.50
42715;DHT22;28351;51.480;5.706;2022-08-11T17:20:20;32.10;61.10
42715;DHT22;28351;51.480;5.706;2022-08-11T17:22:46;32.00;60.90
42715;DHT22;28351;51.480;5.706;2022-08-11T17:25:32;31.80;60.50
42715;DHT22;28351;51.480;5.706;2022-08-11T17:27:58;31.50;60.80
42715;DHT22;28351;51.480;5.706;2022-08-11T17:30:24;31.50;61.40
42715;DHT22;28351;51.480;5.706;2022-08-11T17:33:11;31.40;61.40
42715;DHT22;28351;51.480;5.706;2022-08-11T17:35:55;31.40;61.20
42715;DHT22;28351;51.480;5.706;2022-08-11T17:38:21;31.30;61.60
42715;DHT22;28351;51.480;5.706;2022-08-11T17:40:51;31.20;61.70
42715;DHT22;28351;51.480;5.706;2022-08-11T17:43:36;31.20;62.30
42715;DHT22;28351;51.480;5.706;2022-08-11T17:46:20;31.10;62.30
42715;DHT22;28351;51.480;5.706;2022-08-11T17:49:05;31.00;62.20
42715;DHT22;28351;51.480;5.706;2022-08-11T17:51:32;31.00;62.60
42715;DHT22;28351;51.480;5.706;2022-08-11T17:54:16;30.90;62.50
42715;DHT22;28351;51.480;5.706;2022-08-11T17:57:01;30.70;62.40
42715;DHT22;28351;51.480;5.706;2022-08-11T17:59:46;30.70;62.60
42715;DHT22;28351;51.480;5.706;2022-08-11T18:02:41;30.60;63.00
42715;DHT22;28351;51.480;5.706;2022-08-11T18:05:26;30.50;63.50
42715;DHT22;28351;51.480;5.706;2022-08-11T18:07:54;30.40;63.90
42715;DHT22;28351;51.480;5.706;2022-08-11T18:10:39;30.40;63.80
42715;DHT22;28351;51.480;5.706;2022-08-11T18:13:24;30.20;63.90
42715;DHT22;28351;51.480;5.706;2022-08-11T18:16:09;30.10;64.30
42715;DHT22;28351;51.480;5.706;2022-08-11T18:18:54;29.90;64.20
42715;DHT22;28351;51.480;5.706;2022-08-11T18:21:40;29.80;64.70
42715;DHT22;28351;51.480;5.706;2022-08-11T18:24:24;29.60;64.50
42715;DHT22;28351;51.480;5.706;2022-08-11T18:27:10;29.50;64.70
42715;DHT22;28351;51.480;5.706;2022-08-11T18:29:56;29.40;65.30
42715;DHT22;28351;51.480;5.706;2022-08-11T18:32:41;29.30;65.70
42715;DHT22;28351;51.480;5.706;2022-08-11T18:35:25;29.20;65.60
42715;DHT22;28351;51.480;5.706;2022-08-11T18:38:10;29.10;65.10
42715;DHT22;28351;51.480;5.706;2022-08-11T18:40:56;28.90;65.40
42715;DHT22;28351;51.480;5.706;2022-08-11T18:43:41;28.80;65.50
42715;DHT22;28351;51.480;5.706;2022-08-11T18:46:26;28.70;65.90
42715;DHT22;28351;51.480;5.706;2022-08-11T18:49:16;28.60;66.30
42715;DHT22;28351;51.480;5.706;2022-08-11T18:52:01;28.50;66.90
42715;DHT22;28351;51.480;5.706;2022-08-11T18:54:47;28.40;66.50
42715;DHT22;28351;51.480;5.706;2022-08-11T18:57:32;28.30;67.50
42715;DHT22;28351;51.480;5.706;2022-08-11T19:00:22;28.20;67.70
42715;DHT22;28351;51.480;5.706;2022-08-11T19:03:08;28.00;68.30
42715;DHT22;28351;51.480;5.706;2022-08-11T19:05:53;27.90;69.20
42715;DHT22;28351;51.480;5.706;2022-08-11T19:08:41;27.70;69.80
42715;DHT22;28351;51.480;5.706;2022-08-11T19:11:29;27.60;69.90
42715;DHT22;28351;51.480;5.706;2022-08-11T19:14:14;27.40;70.10
42715;DHT22;28351;51.480;5.706;2022-08-11T19:16:59;27.20;70.90
42715;DHT22;28351;51.480;5.706;2022-08-11T19:19:44;27.10;71.50
42715;DHT22;28351;51.480;5.706;2022-08-11T19:22:29;27.00;71.50
42715;DHT22;28351;51.480;5.706;2022-08-11T19:25:14;26.90;71.20
42715;DHT22;28351;51.480;5.706;2022-08-11T19:27:59;26.80;71.20
42715;DHT22;28351;51.480;5.706;2022-08-11T19:30:44;26.70;71.50
42715;DHT22;28351;51.480;5.706;2022-08-11T19:33:28;26.50;71.40
42715;DHT22;28351;51.480;5.706;2022-08-11T19:36:15;26.40;71.40
42715;DHT22;28351;51.480;5.706;2022-08-11T19:38:59;26.30;71.90
42715;DHT22;28351;51.480;5.706;2022-08-11T19:41:44;26.20;74.20
42715;DHT22;28351;51.480;5.706;2022-08-11T19:44:28;26.00;72.50